Time;durP1;ratioP1;P1;durP2;ratioP2;P2;SDS_P1;SDS_P2;PMS_P1;PMS_P2;Temp;Humidity;BMP_temperature;BMP_pressure;BME280_temperature;BME280_humidity;BME280_pressure;Samples;Min_cycle;Max_cycle;Signal;HPM_P1;HPM_P2
2021/10/27 00:00:24;;;;;;;39.22;26.80;;;11.00;89.50;;;;;;5026299;28;20042;-62
2021/10/27 00:02:51;;;;;;;39.00;28.83;;;10.90;90.00;;;;;;5027228;28;20036;-62
2021/10/27 00:05:17;;;;;;;36.58;27.58;;;10.90;90.50;;;;;;5028203;28;20381;-61
2021/10/27 00:07:44;;;;;;;34.78;28.23;;;10.80;90.80;;;;;;5025585;28;20032;-62
2021/10/27 00:10:12;;;;;;;33.53;25.67;;;10.80;90.90;;;;;;5026937;28;20025;-62
2021/10/27 00:12:39;;;;;;;33.42;26.15;;;10.80;91.10;;;;;;5028175;28;20029;-61
2021/10/27 00:15:08;;;;;;;33.15;25.40;;;10.70;91.00;;;;;;5025958;28;20029;-62
2021/10/27 00:17:37;;;;;;;33.92;26.60;;;10.70;90.90;;;;;;5026447;28;20481;-62
2021/10/27 00:20:05;;;;;;;36.13;27.23;;;10.70;90.70;;;;;;5027667;28;20374;-61
2021/10/27 00:22:32;;;;;;;34.17;27.75;;;10.80;90.40;;;;;;5028737;28;20665;-62
2021/10/27 00:24:59;;;;;;;38.25;27.30;;;10.80;90.00;;;;;;5025910;28;20056;-61
2021/10/27 00:27:26;;;;;;;35.78;27.10;;;10.80;90.00;;;;;;5022946;28;20048;-61
2021/10/27 00:29:53;;;;;;;34.85;25.88;;;10.80;89.60;;;;;;5030403;28;20049;-61
2021/10/27 00:32:19;;;;;;;41.70;28.27;;;10.90;89.40;;;;;;5024819;28;20755;-61
2021/10/27 00:34:46;;;;;;;35.75;27.85;;;10.90;89.20;;;;;;5022387;28;20046;-61
2021/10/27 00:37:12;;;;;;;37.88;27.48;;;10.90;89.20;;;;;;5023652;28;20030;-61
2021/10/27 00:39:39;;;;;;;36.30;27.67;;;10.90;89.90;;;;;;5023972;28;20038;-61
2021/10/27 00:42:06;;;;;;;38.10;27.35;;;10.80;90.20;;;;;;5022876;28;20257;-61
2021/10/27 00:44:33;;;;;;;32.67;26.13;;;10.70;90.40;;;;;;5023695;28;20040;-61
2021/10/27 00:47:06;;;;;;;37.05;27.65;;;10.70;90.60;;;;;;5024680;28;20698;-61
2021/10/27 00:49:35;;;;;;;37.97;26.60;;;10.60;90.60;;;;;;5023943;28;20030;-61
2021/10/27 00:52:04;;;;;;;38.05;28.20;;;10.60;90.80;;;;;;5029407;28;20033;-61
2021/10/27 00:54:33;;;;;;;32.35;25.65;;;10.60;91.20;;;;;;5024188;28;20033;-61
2021/10/27 00:57:01;;;;;;;33.25;27.15;;;10.60;91.30;;;;;;5024983;28;20030;-62
2021/10/27 00:59:28;;;;;;;33.55;26.25;;;10.50;91.30;;;;;;5021822;28;20034;-61
2021/10/27 01:01:56;;;;;;;34.67;27.75;;;10.50;91.40;;;;;;5023593;28;20034;-61
2021/10/27 01:04:24;;;;;;;37.08;27.40;;;10.40;91.40;;;;;;5022756;28;20068;-61
2021/10/27 01:06:50;;;;;;;37.05;28.83;;;10.40;91.50;;;;;;5030549;28;20025;-61
2021/10/27 01:09:19;;;;;;;33.67;26.70;;;10.40;91.50;;;;;;5023580;28;20046;-61
2021/10/27 01:11:48;;;;;;;35.35;26.17;;;10.40;91.70;;;;;;5022312;28;20105;-61
2021/10/27 01:14:15;;;;;;;35.63;26.42;;;10.40;91.50;;;;;;5022856;28;20029;-61
2021/10/27 01:16:42;;;;;;;43.10;27.38;;;10.40;91.50;;;;;;5023694;28;20469;-61
2021/10/27 01:19:09;;;;;;;34.75;26.95;;;10.40;91.40;;;;;;5022318;28;20038;-61
2021/10/27 01:21:40;;;;;;;33.30;24.75;;;10.30;91.40;;;;;;5021005;28;20061;-61
2021/10/27 01:24:07;;;;;;;36.33;25.92;;;10.30;91.50;;;;;;5037661;28;20034;-61
2021/10/27 01:26:35;;;;;;;32.90;24.55;;;10.30;91.60;;;;;;5022749;28;20382;-61
2021/10/27 01:29:02;;;;;;;38.97;27.95;;;10.20;91.80;;;;;;5023819;28;20033;-61
2021/10/27 01:31:29;;;;;;;32.33;25.17;;;10.20;91.80;;;;;;5022341;28;20026;-60
2021/10/27 01:33:57;;;;;;;33.95;24.75;;;10.10;92.00;;;;;;5021855;28;20040;-60
2021/10/27 01:36:24;;;;;;;34.25;26.00;;;10.10;92.20;;;;;;5025977;28;20029;-61
2021/10/27 01:38:50;;;;;;;35.88;26.63;;;10.00;92.50;;;;;;5031543;28;20044;-60
2021/10/27 01:41:17;;;;;;;36.13;27.10;;;10.00;93.00;;;;;;5032632;28;20056;-61
2021/10/27 01:44:01;;;;;;;34.13;27.45;;;10.00;92.80;;;;;;5032399;28;20048;-61
2021/10/27 01:46:36;;;;;;;38.20;26.90;;;10.00;92.80;;;;;;5033202;28;20382;-60
2021/10/27 01:49:06;;;;;;;36.20;26.38;;;9.90;92.80;;;;;;5033050;28;20382;-61
2021/10/27 01:51:33;;;;;;;37.10;26.65;;;9.90;92.80;;;;;;5032878;28;20045;-60
2021/10/27 01:54:00;;;;;;;31.25;25.50;;;9.90;92.80;;;;;;5032853;28;20029;-60
2021/10/27 01:56:27;;;;;;;34.03;26.73;;;9.80;92.70;;;;;;5032897;28;20054;-61
2021/10/27 01:58:56;;;;;;;33.03;24.02;;;9.80;92.80;;;;;;5032629;28;20041;-61
2021/10/27 02:01:23;;;;;;;42.47;28.67;;;9.80;92.80;;;;;;5014997;28;20053;-61
2021/10/27 02:03:51;;;;;;;34.13;26.45;;;9.70;93.00;;;;;;5032662;28;20037;-61
2021/10/27 02:06:18;;;;;;;32.97;24.73;;;9.70;93.10;;;;;;5032653;28;20026;-61
2021/10/27 02:08:44;;;;;;;36.55;26.23;;;9.60;93.30;;;;;;5031442;28;20401;-60
2021/10/27 02:11:11;;;;;;;35.78;25.20;;;9.60;93.50;;;;;;5031891;28;20708;-60
2021/10/27 02:13:38;;;;;;;37.30;26.55;;;9.60;93.60;;;;;;5031375;28;20036;-60
2021/10/27 02:16:04;;;;;;;35.47;26.58;;;9.60;93.70;;;;;;5032288;28;20031;-61
2021/10/27 02:18:31;;;;;;;33.60;25.55;;;9.60;93.90;;;;;;5032688;28;20038;-61
2021/10/27 02:20:57;;;;;;;33.97;25.65;;;9.60;93.90;;;;;;5032439;28;20040;-61
2021/10/27 02:23:24;;;;;;;38.17;28.63;;;9.60;94.00;;;;;;5032258;28;20049;-61
2021/10/27 02:25:50;;;;;;;34.75;26.63;;;9.50;94.10;;;;;;5032099;28;20044;-60
2021/10/27 02:28:17;;;;;;;34.95;26.65;;;9.40;94.30;;;;;;5032087;28;20709;-61
2021/10/27 02:30:46;;;;;;;34.78;26.45;;;9.40;94.40;;;;;;5032587;28;20036;-61
2021/10/27 02:33:12;;;;;;;36.63;27.27;;;9.40;94.50;;;;;;5032232;28;20030;-61
2021/10/27 02:35:39;;;;;;;35.50;27.13;;;9.40;94.70;;;;;;5032510;28;20037;-61
2021/10/27 02:38:07;;;;;;;33.63;26.98;;;9.30;94.90;;;;;;5031979;28;20033;-60
2021/10/27 02:40:34;;;;;;;39.45;28.42;;;9.40;95.00;;;;;;5030203;28;20058;-60
2021/10/27 02:43:00;;;;;;;36.78;27.38;;;9.40;94.90;;;;;;5031971;28;20040;-61
2021/10/27 02:45:27;;;;;;;36.65;26.30;;;9.40;94.90;;;;;;5032423;28;20052;-61
2021/10/27 02:47:53;;;;;;;38.92;28.30;;;9.30;95.00;;;;;;5032147;28;20040;-61
2021/10/27 02:50:21;;;;;;;37.65;28.02;;;9.30;95.00;;;;;;5032068;28;20029;-61
2021/10/27 02:52:48;;;;;;;37.03;29.20;;;9.30;95.00;;;;;;5030690;28;20048;-62
2021/10/27 02:55:16;;;;;;;37.10;27.63;;;9.30;95.00;;;;;;5031857;28;20044;-61
2021/10/27 02:57:42;;;;;;;36.35;28.27;;;9.30;95.00;;;;;;5031928;28;20048;-60
2021/10/27 03:00:09;;;;;;;35.45;27.50;;;9.30;95.10;;;;;;5031902;28;20042;-60
2021/10/27 03:02:37;;;;;;;39.08;28.00;;;9.30;95.20;;;;;;5012308;28;20046;-60
2021/10/27 03:05:06;;;;;;;38.10;28.08;;;9.20;95.30;;;;;;5012130;28;20045;-60
2021/10/27 03:07:33;;;;;;;35.88;27.38;;;9.20;95.50;;;;;;5011772;28;20038;-60
2021/10/27 03:10:01;;;;;;;33.83;26.73;;;9.20;95.50;;;;;;5010178;28;20034;-60
2021/10/27 03:12:27;;;;;;;36.05;27.33;;;9.20;95.60;;;;;;5010839;28;20034;-61
2021/10/27 03:14:54;;;;;;;35.13;27.27;;;9.10;95.70;;;;;;5011554;28;20042;-61
2021/10/27 03:17:20;;;;;;;39.28;29.52;;;9.10;96.10;;;;;;5012162;28;20021;-61
2021/10/27 03:19:46;;;;;;;35.75;28.65;;;9.10;95.80;;;;;;5012219;28;20478;-61
2021/10/27 03:22:13;;;;;;;36.40;26.83;;;9.10;95.80;;;;;;5012158;28;20041;-61
2021/10/27 03:24:39;;;;;;;40.05;28.88;;;9.10;95.80;;;;;;5011543;28;20061;-60
2021/10/27 03:27:06;;;;;;;33.60;25.70;;;9.10;96.00;;;;;;5011793;28;20033;-60
2021/10/27 03:29:32;;;;;;;36.60;28.23;;;9.10;96.00;;;;;;5011593;28;20038;-61
2021/10/27 03:31:59;;;;;;;35.85;27.85;;;9.10;95.90;;;;;;5010488;28;20037;-61
2021/10/27 03:34:26;;;;;;;40.55;28.27;;;9.00;96.10;;;;;;5012206;28;20026;-60
2021/10/27 03:36:53;;;;;;;37.55;27.30;;;9.00;96.40;;;;;;5012098;28;20045;-61
2021/10/27 03:39:20;;;;;;;36.70;27.80;;;9.00;96.40;;;;;;5011504;28;20033;-60
2021/10/27 03:41:46;;;;;;;35.55;26.55;;;9.00;96.40;;;;;;5011616;28;20280;-60
2021/10/27 03:44:13;;;;;;;37.28;28.70;;;9.00;96.40;;;;;;5013407;28;20049;-61
2021/10/27 03:46:40;;;;;;;35.17;27.52;;;9.00;96.40;;;;;;5011531;28;20438;-60
2021/10/27 03:49:06;;;;;;;35.28;25.73;;;9.00;96.50;;;;;;5012175;28;20485;-60
2021/10/27 03:51:33;;;;;;;36.95;27.08;;;9.00;96.40;;;;;;5010677;28;20036;-61
2021/10/27 03:54:00;;;;;;;39.85;28.35;;;9.00;96.40;;;;;;5012184;28;20041;-61
2021/10/27 03:56:26;;;;;;;37.40;27.98;;;9.00;96.50;;;;;;5011538;28;20394;-61
2021/10/27 03:58:53;;;;;;;35.53;26.63;;;9.00;96.50;;;;;;5010435;28;20040;-61
2021/10/27 04:01:20;;;;;;;34.83;26.98;;;9.00;96.50;;;;;;5012103;28;20045;-61
2021/10/27 04:03:47;;;;;;;39.00;28.83;;;9.10;96.50;;;;;;5013863;28;20037;-61
2021/10/27 04:06:13;;;;;;;38.42;27.88;;;9.10;96.60;;;;;;5015208;28;20045;-61
2021/10/27 04:08:40;;;;;;;43.72;28.73;;;9.10;96.80;;;;;;5014822;28;20057;-61
2021/10/27 04:11:06;;;;;;;36.28;28.42;;;9.10;96.70;;;;;;5014904;28;20037;-61
2021/10/27 04:13:33;;;;;;;40.38;30.02;;;9.10;96.80;;;;;;5014827;28;20382;-61
2021/10/27 04:16:00;;;;;;;36.83;28.15;;;9.00;96.60;;;;;;5015354;28;20045;-61
2021/10/27 04:18:26;;;;;;;37.78;28.80;;;9.00;96.40;;;;;;5014918;28;20046;-62
2021/10/27 04:20:52;;;;;;;38.15;28.58;;;9.00;96.70;;;;;;5015003;28;20049;-61
2021/10/27 04:23:19;;;;;;;37.53;29.10;;;9.00;96.80;;;;;;5014864;28;20026;-61
2021/10/27 04:25:45;;;;;;;35.55;27.63;;;9.00;97.00;;;;;;5015645;28;20042;-61
2021/10/27 04:28:12;;;;;;;39.55;30.85;;;9.00;97.10;;;;;;5015160;28;20034;-60
2021/10/27 04:30:38;;;;;;;41.45;30.48;;;9.00;97.10;;;;;;5013597;28;20037;-61
2021/10/27 04:33:15;;;;;;;38.72;27.38;;;9.00;97.40;;;;;;5014721;28;20390;-61
2021/10/27 04:35:41;;;;;;;36.38;27.83;;;9.00;97.00;;;;;;5014772;28;20043;-61
2021/10/27 04:38:08;;;;;;;35.65;29.42;;;9.00;96.70;;;;;;5014859;28;20478;-61
2021/10/27 04:40:34;;;;;;;38.78;28.02;;;8.90;96.80;;;;;;5014178;28;20096;-61
2021/10/27 04:43:00;;;;;;;39.05;28.27;;;8.90;96.80;;;;;;5014909;28;20033;-60
2021/10/27 04:45:28;;;;;;;39.70;28.95;;;9.00;97.00;;;;;;5014302;28;20052;-60
2021/10/27 04:47:55;;;;;;;42.75;29.90;;;8.90;96.90;;;;;;5014396;28;20058;-61
2021/10/27 04:50:21;;;;;;;39.70;27.42;;;8.90;97.00;;;;;;5023518;28;20037;-60
2021/10/27 04:52:48;;;;;;;46.63;29.95;;;8.90;97.00;;;;;;5034252;28;20369;-60
2021/10/27 04:55:14;;;;;;;38.47;29.58;;;8.90;97.10;;;;;;5033973;28;20037;-60
2021/10/27 04:57:41;;;;;;;38.20;28.35;;;9.00;97.00;;;;;;5033127;28;20076;-60
2021/10/27 05:00:08;;;;;;;37.65;27.80;;;8.90;96.90;;;;;;5028067;28;20038;-61
2021/10/27 05:02:36;;;;;;;39.47;28.95;;;8.90;96.90;;;;;;5017214;28;20050;-61
2021/10/27 05:05:03;;;;;;;42.10;27.95;;;8.90;97.00;;;;;;5022763;28;20374;-61
2021/10/27 05:07:29;;;;;;;42.85;29.38;;;8.90;96.90;;;;;;5017219;28;20074;-62
2021/10/27 05:09:56;;;;;;;42.80;29.50;;;8.90;97.10;;;;;;5016613;28;20042;-61
2021/10/27 05:12:24;;;;;;;39.45;29.63;;;8.90;96.80;;;;;;5019389;28;20477;-61
2021/10/27 05:14:51;;;;;;;39.17;29.73;;;8.90;96.60;;;;;;5019279;28;20386;-61
2021/10/27 05:17:18;;;;;;;41.38;30.35;;;8.80;96.60;;;;;;5017592;28;20386;-60
2021/10/27 05:19:46;;;;;;;40.58;28.55;;;8.80;96.80;;;;;;5022130;28;20397;-61
2021/10/27 05:22:14;;;;;;;36.42;27.63;;;8.80;96.90;;;;;;5023793;28;20025;-61
2021/10/27 05:24:42;;;;;;;37.83;27.05;;;8.80;96.60;;;;;;5018338;28;20025;-61
2021/10/27 05:27:09;;;;;;;37.05;26.52;;;8.80;96.50;;;;;;5022112;28;20050;-60
2021/10/27 05:29:36;;;;;;;35.90;27.80;;;8.80;96.50;;;;;;5030349;28;20029;-62
2021/10/27 05:32:06;;;;;;;40.88;26.95;;;8.80;96.60;;;;;;5036612;28;20053;-60
2021/10/27 05:34:33;;;;;;;36.42;26.80;;;8.80;96.50;;;;;;5031304;28;20488;-60
2021/10/27 05:36:59;;;;;;;36.97;27.67;;;8.70;96.50;;;;;;5023324;28;20033;-60
2021/10/27 05:39:26;;;;;;;37.10;26.17;;;8.70;96.50;;;;;;5027177;28;20037;-60
2021/10/27 05:41:53;;;;;;;37.30;26.02;;;8.70;96.60;;;;;;5026885;28;20060;-59
2021/10/27 05:44:20;;;;;;;37.05;26.50;;;8.70;96.60;;;;;;5030791;28;20033;-61
2021/10/27 05:46:50;;;;;;;37.47;26.95;;;8.70;96.80;;;;;;5021318;28;20053;-61
2021/10/27 05:49:23;;;;;;;40.95;27.88;;;8.70;96.90;;;;;;5023420;28;20029;-62
2021/10/27 05:51:54;;;;;;;37.88;27.00;;;8.70;96.90;;;;;;5032133;28;20033;-61
2021/10/27 05:57:07;;;;;;;38.92;27.15;;;8.70;96.70;;;;;;5032520;28;20394;-61
2021/10/27 05:59:34;;;;;;;38.20;26.48;;;8.70;96.60;;;;;;5026283;28;20033;-61
2021/10/27 06:02:01;;;;;;;39.63;27.27;;;8.70;96.50;;;;;;5025420;28;20477;-61
2021/10/27 06:04:28;;;;;;;38.28;27.20;;;8.70;96.40;;;;;;5027186;28;20041;-62
2021/10/27 06:06:55;;;;;;;38.10;26.02;;;8.70;96.20;;;;;;5026332;28;20388;-61
2021/10/27 06:09:21;;;;;;;41.60;28.30;;;8.70;95.90;;;;;;5022046;28;20049;-61
2021/10/27 06:11:48;;;;;;;42.30;28.95;;;8.60;95.90;;;;;;5022545;28;20038;-61
2021/10/27 06:14:15;;;;;;;36.63;27.70;;;8.50;96.00;;;;;;5012681;28;20090;-64
2021/10/27 06:16:41;;;;;;;41.00;27.75;;;8.50;96.20;;;;;;5014984;28;20034;-61
2021/10/27 06:19:08;;;;;;;42.65;28.58;;;8.50;96.60;;;;;;5032123;28;20029;-62
2021/10/27 06:21:34;;;;;;;36.30;26.55;;;8.50;96.70;;;;;;5031938;28;20041;-61
2021/10/27 06:24:01;;;;;;;38.53;26.52;;;8.50;96.80;;;;;;5032022;28;20036;-61
2021/10/27 06:26:27;;;;;;;39.67;27.67;;;8.60;97.20;;;;;;5031003;28;20367;-62
2021/10/27 06:29:01;;;;;;;40.28;27.90;;;8.60;96.90;;;;;;5026363;28;20030;-62
2021/10/27 06:31:33;;;;;;;37.75;27.58;;;8.60;96.70;;;;;;5023738;28;20133;-61
2021/10/27 06:36:55;;;;;;;37.13;27.00;;;8.70;97.10;;;;;;5024623;28;20040;-61
2021/10/27 06:47:30;;;;;;;38.33;27.00;;;8.80;97.50;;;;;;5024350;28;20093;-60
2021/10/27 06:49:57;;;;;;;30.10;21.83;;;8.90;97.40;;;;;;5026379;28;20041;-60
2021/10/27 06:52:23;;;;;;;40.67;29.65;;;8.90;97.20;;;;;;5020222;28;20462;-60
2021/10/27 06:54:51;;;;;;;38.47;28.17;;;8.90;97.10;;;;;;5029604;28;20038;-61
2021/10/27 06:57:22;;;;;;;37.65;28.13;;;9.00;97.10;;;;;;5020244;28;20030;-61
2021/10/27 06:59:50;;;;;;;43.47;30.52;;;9.00;97.10;;;;;;5028793;28;20052;-61
2021/10/27 07:04:53;;;;;;;43.60;27.48;;;9.20;97.00;;;;;;5022748;28;20044;-60
2021/10/27 07:17:58;;;;;;;40.72;28.92;;;9.70;96.60;;;;;;5017316;28;20041;-61
2021/10/27 07:20:24;;;;;;;41.42;27.55;;;9.80;96.50;;;;;;5021050;28;20049;-61
2021/10/27 07:22:56;;;;;;;41.92;28.50;;;9.90;96.50;;;;;;5023801;28;20041;-61
2021/10/27 07:25:23;;;;;;;42.63;27.67;;;9.90;96.50;;;;;;5019864;28;20033;-61
2021/10/27 07:27:51;;;;;;;47.40;31.70;;;10.00;96.80;;;;;;5020459;28;20505;-62
2021/10/27 07:30:18;;;;;;;38.70;28.95;;;10.10;96.70;;;;;;5017532;28;20056;-62
2021/10/27 07:32:45;;;;;;;46.58;30.20;;;10.10;96.70;;;;;;5022460;28;20386;-62
2021/10/27 07:35:17;;;;;;;38.08;30.75;;;10.20;96.70;;;;;;5023622;28;20041;-60
2021/10/27 07:40:35;;;;;;;40.25;30.83;;;10.40;96.70;;;;;;5022075;28;20049;-61
2021/10/27 07:43:10;;;;;;;45.22;31.08;;;10.50;96.40;;;;;;5034787;28;20033;-61
2021/10/27 07:45:39;;;;;;;43.03;32.35;;;10.50;96.10;;;;;;5025205;28;20029;-59
2021/10/27 07:48:06;;;;;;;40.13;29.73;;;10.60;95.80;;;;;;5031352;28;20033;-61
2021/10/27 07:50:35;;;;;;;45.65;32.88;;;10.70;95.50;;;;;;5025641;28;20482;-60
2021/10/27 07:53:03;;;;;;;39.95;28.95;;;10.80;94.30;;;;;;5035929;28;20036;-59
2021/10/27 07:55:31;;;;;;;42.05;30.25;;;10.90;94.10;;;;;;5035985;28;20044;-57
2021/10/27 07:57:58;;;;;;;39.70;30.85;;;11.00;93.80;;;;;;5031861;28;20265;-61
2021/10/27 08:00:26;;;;;;;49.22;32.20;;;11.10;93.30;;;;;;5020237;28;20514;-61
2021/10/27 08:02:54;;;;;;;44.70;30.65;;;11.20;92.30;;;;;;5016616;28;20501;-60
2021/10/27 08:05:20;;;;;;;48.60;30.33;;;11.20;91.90;;;;;;5015684;28;20026;-61
2021/10/27 08:07:49;;;;;;;43.60;29.23;;;11.30;91.40;;;;;;5015844;28;20033;-60
2021/10/27 08:10:21;;;;;;;44.80;32.38;;;11.30;91.20;;;;;;5015877;28;20045;-53
2021/10/27 08:12:49;;;;;;;43.83;31.50;;;11.40;91.00;;;;;;5015869;28;20038;-48
2021/10/27 08:15:17;;;;;;;50.40;32.40;;;11.50;90.80;;;;;;5014295;28;20033;-50
2021/10/27 08:17:44;;;;;;;43.05;31.80;;;11.60;90.70;;;;;;5014616;28;20042;-53
2021/10/27 08:20:14;;;;;;;44.63;31.88;;;11.70;90.50;;;;;;5015355;28;20026;-55
2021/10/27 08:22:44;;;;;;;42.55;29.75;;;11.70;90.40;;;;;;5019898;28;20045;-62
2021/10/27 08:25:29;;;;;;;31.00;23.30;;;11.80;90.30;;;;;;5017088;28;20034;-61
2021/10/27 08:28:07;;;;;;;40.58;29.45;;;11.90;90.10;;;;;;5016190;28;20505;-61
2021/10/27 08:30:44;;;;;;;42.50;29.33;;;12.00;88.20;;;;;;5015623;28;20465;-61
2021/10/27 08:36:05;;;;;;;37.05;26.55;;;12.10;86.50;;;;;;5021477;28;20049;-61
2021/10/27 08:38:32;;;;;;;35.47;26.67;;;12.20;86.30;;;;;;5016176;28;20517;-61
2021/10/27 08:41:01;;;;;;;37.53;28.17;;;12.30;86.50;;;;;;5014886;28;20387;-61
2021/10/27 08:43:28;;;;;;;37.92;27.55;;;12.40;86.60;;;;;;5013854;28;20041;-61
2021/10/27 08:45:55;;;;;;;35.75;26.70;;;12.40;86.20;;;;;;5013469;28;20049;-60
2021/10/27 08:48:22;;;;;;;34.72;27.33;;;12.50;85.50;;;;;;5011348;28;20053;-60
2021/10/27 08:50:50;;;;;;;35.58;26.98;;;12.50;84.50;;;;;;5013604;28;20046;-60
2021/10/27 08:53:18;;;;;;;30.73;24.35;;;12.50;83.70;;;;;;5013123;28;20383;-61
2021/10/27 08:55:48;;;;;;;34.40;26.42;;;12.60;83.60;;;;;;5013089;28;20402;-61
2021/10/27 08:58:22;;;;;;;37.38;29.23;;;12.60;82.40;;;;;;5014553;28;20045;-61
2021/10/27 09:06:41;;;;;;;35.95;26.92;;;12.90;82.20;;;;;;5015094;28;20053;-61
2021/10/27 09:37:30;;;;;;;53.92;37.35;;;13.60;81.40;;;;;;5014791;28;20049;-61
2021/10/27 09:42:52;;;;;;;44.53;35.17;;;13.60;80.80;;;;;;5014599;28;20053;-61
2021/10/27 10:06:47;;;;;;;50.83;34.85;;;14.10;79.00;;;;;;5013866;28;20042;-62
2021/10/27 10:09:13;;;;;;;;;;;14.20;78.60;;;;;;5013849;28;20049;-62
2021/10/27 10:11:41;;;;;;;48.22;34.47;;;14.30;78.50;;;;;;5014524;28;19918;-61
2021/10/27 10:14:10;;;;;;;46.67;35.08;;;14.30;77.70;;;;;;5013869;28;20041;-61
2021/10/27 10:16:58;;;;;;;43.90;34.55;;;14.30;76.10;;;;;;5012654;28;20391;-61
2021/10/27 10:19:33;;;;;;;45.95;34.83;;;14.40;76.90;;;;;;5013350;28;20052;-60
2021/10/27 10:21:59;;;;;;;41.95;34.28;;;14.50;75.70;;;;;;5014003;28;20060;-60
2021/10/27 10:24:31;;;;;;;43.15;34.90;;;14.50;73.50;;;;;;5013737;28;20052;-60
2021/10/27 10:27:00;;;;;;;45.20;34.70;;;14.60;73.70;;;;;;5013431;28;20038;-61
2021/10/27 10:29:39;;;;;;;43.55;35.03;;;14.70;72.60;;;;;;5013662;28;20069;-61
2021/10/27 10:32:25;;;;;;;43.20;33.95;;;14.70;72.60;;;;;;5013531;28;20055;-62
2021/10/27 10:35:13;;;;;;;40.33;32.60;;;14.70;72.50;;;;;;5013770;28;20038;-61
2021/10/27 11:02:02;;;;;;;36.15;27.55;;;15.40;67.30;;;;;;5029726;28;20033;-62
2021/10/27 11:41:26;;;;;;;44.75;34.05;;;15.80;68.10;;;;;;5031208;28;20036;-62
2021/10/27 11:46:27;;;;;;;43.30;34.75;;;15.90;68.50;;;;;;5031917;28;20041;-61
2021/10/27 11:49:09;;;;;;;40.92;32.40;;;15.90;67.70;;;;;;5032084;28;20415;-61
2021/10/27 11:51:37;;;;;;;38.65;30.40;;;15.90;66.90;;;;;;5032185;28;20026;-61
2021/10/27 11:54:12;;;;;;;38.28;30.70;;;15.90;66.40;;;;;;5032185;28;20060;-60
2021/10/27 11:56:40;;;;;;;37.72;29.55;;;16.00;66.20;;;;;;5015162;28;20045;-62
2021/10/27 11:59:06;;;;;;;38.10;28.40;;;16.00;65.70;;;;;;5012425;28;20038;-61
2021/10/27 12:01:43;;;;;;;39.42;30.05;;;16.00;66.10;;;;;;5012251;28;20050;-61
2021/10/27 12:04:16;;;;;;;39.97;29.92;;;16.00;65.80;;;;;;5011472;28;20030;-61
2021/10/27 12:09:30;;;;;;;37.85;27.13;;;16.10;64.50;;;;;;5011964;28;20057;-61
2021/10/27 12:14:54;;;;;;;34.30;26.73;;;16.10;64.60;;;;;;5012118;28;20046;-66
2021/10/27 12:17:32;;;;;;;30.67;23.98;;;16.10;64.20;;;;;;5012071;28;20370;-61
2021/10/27 12:19:59;;;;;;;28.33;22.98;;;16.20;61.60;;;;;;5012066;28;20034;-61
2021/10/27 12:22:26;;;;;;;32.33;25.48;;;16.30;60.20;;;;;;5010817;28;20053;-61
2021/10/27 12:25:06;;;;;;;27.10;16.58;;;16.40;67.40;;;;;;5015744;28;20036;-62
2021/10/27 12:27:35;;;;;;;20.40;13.60;;;16.40;60.10;;;;;;5015573;28;20026;-61
2021/10/27 12:30:10;;;;;;;19.02;13.02;;;16.40;56.80;;;;;;5016169;28;20414;-62
2021/10/27 12:32:54;;;;;;;23.38;13.00;;;16.40;57.30;;;;;;5014328;28;20034;-62
2021/10/27 12:35:26;;;;;;;16.80;12.48;;;16.40;57.50;;;;;;5015642;28;20036;-61
2021/10/27 12:38:15;;;;;;;17.00;13.07;;;16.40;56.80;;;;;;5015918;28;20045;-62
2021/10/27 12:40:43;;;;;;;17.27;12.88;;;16.30;56.50;;;;;;5015117;28;20054;-63
2021/10/27 12:43:13;;;;;;;18.58;13.63;;;16.30;56.50;;;;;;5015360;28;20058;-61
2021/10/27 12:45:41;;;;;;;20.08;14.63;;;16.30;56.60;;;;;;5015779;28;20160;-62
2021/10/27 12:48:25;;;;;;;21.77;16.10;;;16.30;56.10;;;;;;5015041;28;20033;-62
2021/10/27 12:50:55;;;;;;;18.70;14.70;;;16.30;56.30;;;;;;5015553;28;20046;-62
2021/10/27 12:53:40;;;;;;;;;;;16.30;56.20;;;;;;5016068;28;20494;-62
2021/10/27 12:56:25;;;;;;;22.67;14.65;;;16.30;56.00;;;;;;5015889;28;19939;-62
2021/10/27 12:59:09;;;;;;;19.05;13.35;;;16.40;56.40;;;;;;5015646;28;20053;-61
2021/10/27 13:01:50;;;;;;;16.58;12.52;;;16.50;54.60;;;;;;5015537;28;20065;-62
2021/10/27 13:09:22;;;;;;;16.13;11.50;;;16.60;54.20;;;;;;5015003;28;20046;-62
2021/10/27 13:21:02;;;;;;;15.98;12.07;;;16.60;53.10;;;;;;5031639;28;20202;-62
2021/10/27 13:31:23;;;;;;;14.00;11.05;;;16.70;53.70;;;;;;5014460;28;20041;-61
2021/10/27 13:33:50;;;;;;;15.63;10.18;;;16.70;53.80;;;;;;5014440;28;20038;-61
2021/10/27 13:36:16;;;;;;;13.48;9.40;;;16.70;53.70;;;;;;5014517;28;20050;-62
2021/10/27 13:38:50;;;;;;;14.45;9.43;;;16.70;53.70;;;;;;5015058;28;20057;-62
2021/10/27 13:41:18;;;;;;;12.85;9.30;;;16.70;53.00;;;;;;5014138;28;20390;-62
2021/10/27 14:09:16;;;;;;;16.02;9.85;;;16.70;52.50;;;;;;5014265;28;20046;-62
2021/10/27 14:11:34;;;;;;;17.00;11.07;;;16.70;52.50;;;;;;5009664;28;20045;-62
2021/10/27 14:19:19;;;;;;;18.02;12.73;;;16.70;52.80;;;;;;5013587;28;20525;-62
2021/10/27 15:19:41;;;;;;;16.08;10.85;;;16.80;52.90;;;;;;5029046;28;20029;-62
2021/10/27 15:32:42;;;;;;;17.10;10.60;;;16.50;53.40;;;;;;5028595;28;20048;-62
2021/10/27 15:41:00;;;;;;;16.27;10.32;;;16.40;54.20;;;;;;5027681;28;20046;-62
2021/10/27 15:51:26;;;;;;;18.75;10.13;;;16.20;57.00;;;;;;5028723;28;20279;-61
2021/10/27 15:53:56;;;;;;;14.73;10.13;;;16.10;58.30;;;;;;5028036;28;20061;-61
2021/10/27 15:56:23;;;;;;;16.50;10.88;;;16.10;58.00;;;;;;5028182;28;20045;-61
2021/10/27 15:58:50;;;;;;;18.58;10.88;;;16.00;58.30;;;;;;5031581;28;20049;-62
2021/10/27 16:01:17;;;;;;;13.90;9.98;;;16.00;58.40;;;;;;5031777;28;20042;-62
2021/10/27 16:03:43;;;;;;;15.32;10.32;;;15.90;59.00;;;;;;5031733;28;20405;-62
2021/10/27 16:06:11;;;;;;;12.77;10.52;;;15.80;59.30;;;;;;5032445;28;20056;-62
2021/10/27 16:08:39;;;;;;;17.00;9.85;;;15.80;59.70;;;;;;5031288;28;20417;-62
2021/10/27 16:11:06;;;;;;;15.75;10.60;;;15.70;60.50;;;;;;5031420;28;20045;-61
2021/10/27 16:13:32;;;;;;;15.68;10.57;;;15.60;61.40;;;;;;5032331;28;20041;-61
2021/10/27 16:16:03;;;;;;;15.85;10.77;;;15.50;62.50;;;;;;5031648;28;20049;-62
2021/10/27 16:18:32;;;;;;;16.83;10.82;;;15.40;62.60;;;;;;5032195;28;20041;-62
2021/10/27 16:21:00;;;;;;;16.30;11.23;;;15.40;62.60;;;;;;5031664;28;20056;-60
2021/10/27 16:23:27;;;;;;;15.38;10.20;;;15.30;63.10;;;;;;5014414;28;20497;-61
2021/10/27 16:25:55;;;;;;;16.85;11.75;;;15.30;63.20;;;;;;5031369;28;20038;-61
2021/10/27 16:28:23;;;;;;;20.35;11.95;;;15.20;63.00;;;;;;5029892;28;20045;-61
2021/10/27 16:30:54;;;;;;;18.27;12.48;;;15.10;63.60;;;;;;5027823;28;20064;-61
2021/10/27 16:33:22;;;;;;;20.52;12.73;;;15.10;64.80;;;;;;5027533;28;20040;-61
2021/10/27 16:35:50;;;;;;;19.42;12.73;;;15.00;64.80;;;;;;5018136;28;20041;-62
2021/10/27 16:38:17;;;;;;;25.63;12.43;;;14.90;65.20;;;;;;5021310;28;20030;-61
2021/10/27 16:40:44;;;;;;;17.45;11.82;;;14.90;65.40;;;;;;5023045;28;20401;-62
2021/10/27 16:43:11;;;;;;;21.65;12.70;;;14.80;65.60;;;;;;5018432;28;20504;-60
2021/10/27 16:45:38;;;;;;;22.73;11.88;;;14.80;65.60;;;;;;5028021;28;20029;-61
2021/10/27 16:48:05;;;;;;;20.80;10.45;;;14.70;65.70;;;;;;5019328;28;20381;-61
2021/10/27 16:50:32;;;;;;;17.10;11.38;;;14.70;65.40;;;;;;5024974;28;20034;-61
2021/10/27 16:52:59;;;;;;;22.48;10.75;;;14.70;65.50;;;;;;5024883;28;20033;-60
2021/10/27 16:55:26;;;;;;;26.35;11.65;;;14.60;65.80;;;;;;5026316;28;20389;-61
2021/10/27 16:57:55;;;;;;;16.10;9.70;;;14.60;65.20;;;;;;5028531;28;20504;-60
2021/10/27 17:00:24;;;;;;;13.52;9.80;;;14.50;65.40;;;;;;5031111;28;20040;-61
2021/10/27 17:02:51;;;;;;;17.15;9.68;;;14.40;64.80;;;;;;5028759;28;20033;-61
2021/10/27 17:05:17;;;;;;;20.45;9.43;;;14.40;65.00;;;;;;5027685;28;20034;-60
2021/10/27 17:07:44;;;;;;;14.90;9.40;;;14.40;65.40;;;;;;5028254;28;20033;-59
2021/10/27 17:10:14;;;;;;;13.95;9.13;;;14.40;65.90;;;;;;5020644;28;20037;-59
2021/10/27 17:12:41;;;;;;;14.90;9.15;;;14.30;65.80;;;;;;5018924;28;20032;-59
2021/10/27 17:15:10;;;;;;;17.13;9.70;;;14.20;65.90;;;;;;5021360;28;20037;-59
2021/10/27 17:17:37;;;;;;;18.50;10.93;;;14.20;66.70;;;;;;5020713;28;20489;-60
2021/10/27 17:20:05;;;;;;;18.52;10.85;;;14.10;67.40;;;;;;5020542;28;20037;-60
2021/10/27 17:22:37;;;;;;;15.25;10.75;;;14.10;67.50;;;;;;5010478;28;20060;-60
2021/10/27 17:25:05;;;;;;;19.55;11.13;;;14.00;67.40;;;;;;5017224;28;20033;-60
2021/10/27 17:27:36;;;;;;;18.75;11.77;;;14.00;67.40;;;;;;5028805;28;20053;-59
2021/10/27 17:30:03;;;;;;;;;;;13.90;67.60;;;;;;5021480;28;20039;-60
2021/10/27 17:32:29;;;;;;;15.75;11.75;;;13.90;68.00;;;;;;5019227;28;20293;-61
2021/10/27 17:34:56;;;;;;;18.55;12.38;;;13.80;68.50;;;;;;5023704;28;20045;-60